« Back
NWS Peachtree City, Ga » Text Product » ATL Terminal Aerodrome Forecast


Printer-friendly Version
Current Version              Previous Versions:   1  2  3  4  5  6  7  8  9  

Terminal Aerodrome Forecast

461
FTUS42 KFFC 271001 AAB
TAFATL
TAF AMD
KATL 271001Z 2710/2812 19003KT P6SM FEW050 OVC150
     FM271100 21003KT P6SM FEW035 SCT150
     FM271500 27008KT P6SM VCSH SCT035 BKN120 PROB30 2720/2723 5SM
      -TSRA OVC025CB
     FM280000 30006KT P6SM SCT100
     FM280300 30004KT P6SM SKC=

USA.gov is the U.S. government's official web portal to all federal, state and local government web resources and services.